createdAt,value
2023-05-14T00:00:31.568Z,7.69
2023-05-14T00:02:58.422Z,7.74
2023-05-14T00:05:25.297Z,7.75
2023-05-14T00:07:51.981Z,7.76
2023-05-14T00:10:20.696Z,7.80
2023-05-14T00:12:47.914Z,7.87
2023-05-14T00:15:14.621Z,7.91
2023-05-14T00:17:42.488Z,8.01
2023-05-14T00:20:12.036Z,8.07
2023-05-14T00:22:39.817Z,8.07
2023-05-14T00:25:07.892Z,8.05
2023-05-14T00:27:36.108Z,8.00
2023-05-14T00:30:04.250Z,8.16
2023-05-14T00:32:30.986Z,8.23
2023-05-14T00:34:57.940Z,8.25
2023-05-14T00:37:24.672Z,8.25
2023-05-14T00:39:51.659Z,8.25
2023-05-14T00:42:18.512Z,8.24
2023-05-14T00:44:45.159Z,8.35
2023-05-14T00:47:12.300Z,8.34
2023-05-14T00:49:40.963Z,8.45
2023-05-14T00:52:08.754Z,8.42
2023-05-14T00:54:36.542Z,8.41
2023-05-14T00:57:04.795Z,8.39
2023-05-14T00:59:31.802Z,8.48
2023-05-14T01:01:58.815Z,8.54
2023-05-14T01:04:25.710Z,8.60
2023-05-14T01:07:22.989Z,8.54
2023-05-14T01:10:28.187Z,8.34
2023-05-14T01:12:58.005Z,8.38
2023-05-14T01:15:30.723Z,8.44
2023-05-14T01:18:08.664Z,8.38
2023-05-14T01:20:36.468Z,8.26
2023-05-14T01:23:03.870Z,8.24
2023-05-14T01:25:31.476Z,8.34
2023-05-14T01:28:18.055Z,8.42
2023-05-14T01:31:08.274Z,8.42
2023-05-14T01:33:37.083Z,8.42
2023-05-14T01:36:04.759Z,8.44
2023-05-14T01:38:34.210Z,8.46
2023-05-14T01:41:02.185Z,8.42
2023-05-14T01:43:29.952Z,8.49
2023-05-14T01:45:56.834Z,8.45
2023-05-14T01:48:25.151Z,8.46
2023-05-14T01:50:52.485Z,8.43
2023-05-14T01:53:19.201Z,8.51
2023-05-14T01:55:45.953Z,8.56
2023-05-14T01:58:12.768Z,8.59
2023-05-14T02:00:39.429Z,8.55
2023-05-14T02:03:06.317Z,8.54
2023-05-14T02:05:33.115Z,8.54
2023-05-14T02:07:59.770Z,8.50
2023-05-14T02:10:26.421Z,8.42
2023-05-14T02:12:52.980Z,8.38
2023-05-14T02:15:19.506Z,8.44
2023-05-14T02:17:46.494Z,8.45
2023-05-14T02:20:13.276Z,8.39
2023-05-14T02:22:42.276Z,8.40
2023-05-14T02:25:09.578Z,8.43
2023-05-14T02:27:36.171Z,8.47
2023-05-14T02:30:03.579Z,8.56
2023-05-14T02:32:30.268Z,8.57
2023-05-14T02:34:56.876Z,8.55
2023-05-14T02:37:23.439Z,8.61
2023-05-14T02:39:50.658Z,8.56
2023-05-14T02:42:17.274Z,8.57
2023-05-14T02:44:43.953Z,8.52
2023-05-14T02:47:10.926Z,8.56
2023-05-14T02:49:37.483Z,8.59
2023-05-14T02:52:04.110Z,8.62
2023-05-14T02:54:30.716Z,8.67
2023-05-14T02:56:57.299Z,8.67
2023-05-14T02:59:24.870Z,8.62
2023-05-14T03:01:51.994Z,8.60
2023-05-14T03:04:19.040Z,8.52
2023-05-14T03:06:45.608Z,8.47
2023-05-14T03:09:12.283Z,8.50
2023-05-14T03:11:38.935Z,8.61
2023-05-14T03:14:05.470Z,8.64
2023-05-14T03:16:32.011Z,8.65
2023-05-14T03:18:58.738Z,8.69
2023-05-14T03:21:25.506Z,8.60
2023-05-14T03:23:52.848Z,8.62
2023-05-14T03:26:19.424Z,8.61
2023-05-14T03:28:45.946Z,8.52
2023-05-14T03:31:12.684Z,8.45
2023-05-14T03:33:39.517Z,8.31
2023-05-14T03:36:06.128Z,8.25
2023-05-14T03:38:32.639Z,8.31
2023-05-14T03:40:59.217Z,8.31
2023-05-14T03:43:25.983Z,8.25
2023-05-14T03:45:52.838Z,8.28
2023-05-14T03:48:20.172Z,8.34
2023-05-14T03:50:47.131Z,8.43
2023-05-14T03:53:13.769Z,8.36
2023-05-14T03:55:40.353Z,8.33
2023-05-14T03:58:13.933Z,8.31
2023-05-14T04:00:43.636Z,8.32
2023-05-14T04:03:11.321Z,8.41
2023-05-14T04:05:37.992Z,8.31
2023-05-14T04:08:04.702Z,8.27
2023-05-14T04:10:32.036Z,8.35
2023-05-14T04:12:59.575Z,8.45
2023-05-14T04:15:30.964Z,8.45
2023-05-14T04:17:57.612Z,8.40
2023-05-14T04:20:24.407Z,8.44
2023-05-14T04:22:51.080Z,8.54
2023-05-14T04:25:18.531Z,8.55
2023-05-14T04:27:45.131Z,8.56
2023-05-14T04:30:11.938Z,8.51
2023-05-14T04:32:39.032Z,8.54
2023-05-14T04:35:06.383Z,8.59
2023-05-14T04:37:33.117Z,8.63
2023-05-14T04:39:59.748Z,8.70
2023-05-14T04:42:26.452Z,8.68
2023-05-14T04:44:53.046Z,8.76
2023-05-14T04:47:21.076Z,8.85
2023-05-14T04:49:47.780Z,8.88
2023-05-14T04:52:14.314Z,8.87
2023-05-14T04:54:41.000Z,8.99
2023-05-14T04:57:07.622Z,9.13
2023-05-14T04:59:34.229Z,9.19
2023-05-14T05:02:00.944Z,9.19
2023-05-14T05:04:27.839Z,9.17
2023-05-14T05:06:54.380Z,9.12
2023-05-14T05:09:20.936Z,9.09
2023-05-14T05:11:47.493Z,9.17
2023-05-14T05:14:14.115Z,9.21
2023-05-14T05:16:40.659Z,9.31
2023-05-14T05:19:07.368Z,9.26
2023-05-14T05:21:34.262Z,9.24
2023-05-14T05:24:00.821Z,9.35
2023-05-14T05:26:27.988Z,9.41
2023-05-14T05:28:54.519Z,9.39
2023-05-14T05:31:21.085Z,9.42
2023-05-14T05:33:47.936Z,9.57
2023-05-14T05:36:14.517Z,9.64
2023-05-14T05:38:41.384Z,9.66
2023-05-14T05:41:08.136Z,9.70
2023-05-14T05:43:34.806Z,9.60
2023-05-14T05:46:01.632Z,9.74
2023-05-14T05:48:28.338Z,9.73
2023-05-14T05:50:55.122Z,9.77
2023-05-14T05:53:21.830Z,9.90
2023-05-14T05:55:48.404Z,9.97
2023-05-14T05:58:17.174Z,10.17
2023-05-14T06:00:43.990Z,10.32
2023-05-14T06:03:11.262Z,10.48
2023-05-14T06:05:37.918Z,10.54
2023-05-14T06:08:04.822Z,10.53
2023-05-14T06:10:31.630Z,10.66
2023-05-14T06:12:58.242Z,10.79
2023-05-14T06:15:25.034Z,10.96
2023-05-14T06:17:51.738Z,11.01
2023-05-14T06:20:22.054Z,10.78
2023-05-14T06:22:48.785Z,10.84
2023-05-14T06:25:15.616Z,10.92
2023-05-14T06:27:42.637Z,10.90
2023-05-14T06:30:11.037Z,10.92
2023-05-14T06:32:37.791Z,10.81
2023-05-14T06:35:04.602Z,10.72
2023-05-14T06:37:31.191Z,10.70
2023-05-14T06:39:58.097Z,10.73
2023-05-14T06:42:25.085Z,10.77
2023-05-14T06:44:51.628Z,10.93
2023-05-14T06:47:18.494Z,11.05
2023-05-14T06:49:45.403Z,11.02
2023-05-14T06:52:12.201Z,10.68
2023-05-14T06:54:39.353Z,10.66
2023-05-14T06:57:06.124Z,10.60
2023-05-14T06:59:33.315Z,10.51
2023-05-14T07:02:00.028Z,10.43
2023-05-14T07:04:29.828Z,10.40
2023-05-14T07:06:56.847Z,10.44
2023-05-14T07:09:23.517Z,10.57
2023-05-14T07:11:50.085Z,10.52
2023-05-14T07:14:16.826Z,10.65
2023-05-14T07:16:43.548Z,10.84
2023-05-14T07:19:10.430Z,10.97
2023-05-14T07:21:37.040Z,11.14
2023-05-14T07:24:03.939Z,11.38
2023-05-14T07:26:31.477Z,11.55
2023-05-14T07:28:58.204Z,11.70
2023-05-14T07:31:24.914Z,11.77
2023-05-14T07:33:52.113Z,11.84
2023-05-14T07:36:18.659Z,11.95
2023-05-14T07:38:45.333Z,11.88
2023-05-14T07:41:12.249Z,12.11
2023-05-14T07:43:40.454Z,12.30
2023-05-14T07:46:07.252Z,12.41
2023-05-14T07:48:34.297Z,12.62
2023-05-14T07:51:00.939Z,12.64
2023-05-14T07:53:27.517Z,12.41
2023-05-14T07:55:54.614Z,12.45
2023-05-14T07:58:21.229Z,12.39
2023-05-14T08:00:47.782Z,12.36
2023-05-14T08:03:14.949Z,12.46
2023-05-14T08:05:41.706Z,12.42
2023-05-14T08:08:08.266Z,12.46
2023-05-14T08:10:34.922Z,12.43
2023-05-14T08:13:01.585Z,12.49
2023-05-14T08:15:28.183Z,12.36
2023-05-14T08:17:58.850Z,12.25
2023-05-14T08:20:25.674Z,12.27
2023-05-14T08:22:52.766Z,12.43
2023-05-14T08:25:19.302Z,12.54
2023-05-14T08:27:45.845Z,12.47
2023-05-14T08:30:12.832Z,12.57
2023-05-14T08:32:39.572Z,12.61
2023-05-14T08:35:06.815Z,12.50
2023-05-14T08:37:33.336Z,12.43
2023-05-14T08:39:59.929Z,12.32
2023-05-14T08:42:28.605Z,12.34
2023-05-14T08:45:03.223Z,12.19
2023-05-14T08:47:30.927Z,12.12
2023-05-14T08:50:08.310Z,12.12
2023-05-14T08:52:35.555Z,11.99
2023-05-14T08:55:06.406Z,12.02
2023-05-14T08:57:34.262Z,11.97
2023-05-14T09:00:02.338Z,12.02
2023-05-14T09:02:31.458Z,12.45
2023-05-14T09:05:15.997Z,13.20
2023-05-14T09:07:43.462Z,13.74
2023-05-14T09:10:18.496Z,13.93
2023-05-14T09:12:49.774Z,14.22
2023-05-14T09:15:18.088Z,14.32
2023-05-14T09:17:47.967Z,14.31
2023-05-14T09:20:15.131Z,14.01
2023-05-14T09:22:42.098Z,13.85
2023-05-14T09:25:12.197Z,13.85
2023-05-14T09:27:38.993Z,14.07
2023-05-14T09:30:13.123Z,14.40
2023-05-14T09:32:46.176Z,14.62
2023-05-14T09:35:22.572Z,14.73
2023-05-14T09:37:54.436Z,14.65
2023-05-14T09:40:24.361Z,14.33
2023-05-14T09:42:51.352Z,14.07
2023-05-14T09:45:18.228Z,13.74
2023-05-14T09:47:45.280Z,13.75
2023-05-14T09:50:12.527Z,13.62
2023-05-14T09:52:39.901Z,13.45
2023-05-14T09:55:07.959Z,13.83
2023-05-14T09:57:35.375Z,14.20
2023-05-14T10:00:02.134Z,14.52
2023-05-14T10:02:40.954Z,14.59
2023-05-14T10:05:08.419Z,14.55
2023-05-14T10:07:48.078Z,14.36
2023-05-14T10:10:19.878Z,14.29
2023-05-14T10:12:57.379Z,14.00
2023-05-14T10:15:33.454Z,13.97
2023-05-14T10:18:05.821Z,14.06
2023-05-14T10:20:32.729Z,13.95
2023-05-14T10:22:59.629Z,13.95
2023-05-14T10:25:27.044Z,13.94
2023-05-14T10:27:54.582Z,14.27
2023-05-14T10:30:25.575Z,14.54
2023-05-14T10:33:12.791Z,14.65
2023-05-14T10:36:02.587Z,14.78
2023-05-14T10:38:34.479Z,14.73
2023-05-14T10:41:06.100Z,14.78
2023-05-14T10:43:38.448Z,14.65
2023-05-14T10:46:05.665Z,14.30
2023-05-14T10:48:33.732Z,14.07
2023-05-14T10:51:01.272Z,14.27
2023-05-14T10:53:34.052Z,14.40
2023-05-14T10:56:08.863Z,14.31
2023-05-14T10:58:37.578Z,14.44
2023-05-14T11:01:06.611Z,14.67
2023-05-14T11:03:39.807Z,15.15
2023-05-14T11:06:07.548Z,15.32
2023-05-14T11:08:34.313Z,15.51
2023-05-14T11:11:00.885Z,15.49
2023-05-14T11:13:28.001Z,15.36
2023-05-14T11:15:55.652Z,15.05
2023-05-14T11:18:38.462Z,14.63
2023-05-14T11:21:05.269Z,14.17
2023-05-14T11:23:31.986Z,13.75
2023-05-14T11:25:58.533Z,13.62
2023-05-14T11:28:26.690Z,13.52
2023-05-14T11:30:54.072Z,13.61
2023-05-14T11:33:21.100Z,13.69
2023-05-14T11:35:48.431Z,13.86
2023-05-14T11:38:20.214Z,15.06
2023-05-14T11:40:54.550Z,16.59
2023-05-14T11:43:23.724Z,17.18
2023-05-14T11:45:52.260Z,16.79
2023-05-14T11:48:19.912Z,16.52
2023-05-14T11:50:51.923Z,16.23
2023-05-14T11:53:26.664Z,15.76
2023-05-14T11:55:54.706Z,15.22
2023-05-14T11:58:21.981Z,14.69
2023-05-14T12:00:52.450Z,14.19
2023-05-14T12:03:30.396Z,14.09
2023-05-14T12:06:01.205Z,14.01
2023-05-14T12:08:31.413Z,14.00
2023-05-14T12:10:59.655Z,13.97
2023-05-14T12:13:27.893Z,13.94
2023-05-14T12:15:56.694Z,14.10
2023-05-14T12:18:27.371Z,14.32
2023-05-14T12:20:54.163Z,14.79
2023-05-14T12:23:31.487Z,15.80
2023-05-14T12:26:06.494Z,16.79
2023-05-14T12:28:36.051Z,17.28
2023-05-14T12:31:04.492Z,17.45
2023-05-14T12:33:31.096Z,17.15
2023-05-14T12:36:09.953Z,16.67
2023-05-14T12:38:41.309Z,16.15
2023-05-14T12:41:07.905Z,15.60
2023-05-14T12:43:34.489Z,15.23
2023-05-14T12:46:01.312Z,15.44
2023-05-14T12:48:28.087Z,15.74
2023-05-14T12:50:54.644Z,15.89
2023-05-14T12:53:21.194Z,15.79
2023-05-14T12:55:48.003Z,15.61
2023-05-14T12:58:14.577Z,15.54
2023-05-14T13:00:41.319Z,15.27
2023-05-14T13:03:08.148Z,15.23
2023-05-14T13:05:34.845Z,15.00
2023-05-14T13:08:05.136Z,14.90
2023-05-14T13:10:31.656Z,14.48
2023-05-14T13:12:58.250Z,14.01
2023-05-14T13:15:25.340Z,13.80
2023-05-14T13:17:53.218Z,13.68
2023-05-14T13:20:20.078Z,13.39
2023-05-14T13:22:46.671Z,13.22
2023-05-14T13:25:13.206Z,13.08
2023-05-14T13:27:39.744Z,12.90
2023-05-14T13:30:07.186Z,12.76
2023-05-14T13:32:33.829Z,12.74
2023-05-14T13:35:00.378Z,12.63
2023-05-14T13:37:27.056Z,12.39
2023-05-14T13:39:53.735Z,12.34
2023-05-14T13:42:22.063Z,12.39
2023-05-14T13:44:48.890Z,12.22
2023-05-14T13:47:24.464Z,12.20
2023-05-14T13:49:53.136Z,12.02
2023-05-14T13:52:19.887Z,11.77
2023-05-14T13:54:46.484Z,11.81
2023-05-14T13:57:13.102Z,11.77
2023-05-14T13:59:39.812Z,11.87
2023-05-14T14:02:08.607Z,11.79
2023-05-14T14:04:35.268Z,11.71
2023-05-14T14:07:01.916Z,11.84
2023-05-14T14:09:28.537Z,12.05
2023-05-14T14:11:55.116Z,11.95
2023-05-14T14:14:21.921Z,12.09
2023-05-14T14:16:48.579Z,11.95
2023-05-14T14:19:16.241Z,12.13
2023-05-14T14:21:44.499Z,12.20
2023-05-14T14:24:11.267Z,12.18
2023-05-14T14:26:37.908Z,12.23
2023-05-14T14:29:04.558Z,12.53
2023-05-14T14:31:31.162Z,12.69
2023-05-14T14:33:57.795Z,13.16
2023-05-14T14:36:24.498Z,13.96
2023-05-14T14:38:51.152Z,14.91
2023-05-14T14:41:17.789Z,15.73
2023-05-14T14:43:44.409Z,16.23
2023-05-14T14:46:11.221Z,17.20
2023-05-14T14:48:38.445Z,18.42
2023-05-14T14:51:06.722Z,19.45
2023-05-14T14:53:34.465Z,19.52
2023-05-14T14:56:01.741Z,18.78
2023-05-14T14:58:28.657Z,18.62
2023-05-14T15:00:56.702Z,18.20
2023-05-14T15:03:25.001Z,17.82
2023-05-14T15:05:53.272Z,17.41
2023-05-14T15:08:20.865Z,16.78
2023-05-14T15:10:47.475Z,16.52
2023-05-14T15:13:14.072Z,16.10
2023-05-14T15:15:40.654Z,15.89
2023-05-14T15:18:07.224Z,15.57
2023-05-14T15:20:33.886Z,15.58
2023-05-14T15:23:00.483Z,15.58
2023-05-14T15:25:27.233Z,15.37
2023-05-14T15:27:53.925Z,15.35
2023-05-14T15:30:20.621Z,15.27
2023-05-14T15:32:47.375Z,14.97
2023-05-14T15:35:14.348Z,14.63
2023-05-14T15:37:43.731Z,14.31
2023-05-14T15:40:11.442Z,14.18
2023-05-14T15:42:40.022Z,14.15
2023-05-14T15:45:06.951Z,14.02
2023-05-14T15:47:33.811Z,13.94
2023-05-14T15:50:00.758Z,13.66
2023-05-14T15:52:27.415Z,13.43
2023-05-14T15:54:55.906Z,13.37
2023-05-14T15:57:22.499Z,13.50
2023-05-14T15:59:49.300Z,13.81
2023-05-14T16:02:15.986Z,13.98
2023-05-14T16:04:42.667Z,13.67
2023-05-14T16:07:09.966Z,13.51
2023-05-14T16:09:36.877Z,13.54
2023-05-14T16:12:05.096Z,13.50
2023-05-14T16:14:33.809Z,13.45
2023-05-14T16:17:01.717Z,13.22
2023-05-14T16:19:28.618Z,13.20
2023-05-14T16:21:55.450Z,13.07
2023-05-14T16:24:22.349Z,13.01
2023-05-14T16:26:48.917Z,13.02
2023-05-14T16:29:16.523Z,13.21
2023-05-14T16:31:43.791Z,13.27
2023-05-14T16:34:16.142Z,13.32
2023-05-14T16:36:42.843Z,13.33
2023-05-14T16:39:09.891Z,13.56
2023-05-14T16:41:36.865Z,13.65
2023-05-14T16:44:11.196Z,13.75
2023-05-14T16:46:38.411Z,13.72
2023-05-14T16:49:05.272Z,13.56
2023-05-14T16:51:34.811Z,13.58
2023-05-14T16:54:01.696Z,13.66
2023-05-14T16:56:30.504Z,13.81
2023-05-14T16:58:57.037Z,13.74
2023-05-14T17:01:23.661Z,13.72
2023-05-14T17:03:50.718Z,13.58
2023-05-14T17:06:17.247Z,13.37
2023-05-14T17:08:43.993Z,13.42
2023-05-14T17:11:14.015Z,13.51
2023-05-14T17:13:43.540Z,13.46
2023-05-14T17:16:10.190Z,13.27
2023-05-14T17:18:36.792Z,13.31
2023-05-14T17:21:05.733Z,13.08
2023-05-14T17:23:35.050Z,12.99
2023-05-14T17:26:01.922Z,12.89
2023-05-14T17:28:29.985Z,12.84
2023-05-14T17:30:57.100Z,12.85
2023-05-14T17:33:25.737Z,12.90
2023-05-14T17:35:52.286Z,12.83
2023-05-14T17:38:18.870Z,12.77
2023-05-14T17:40:45.687Z,12.68
2023-05-14T17:43:12.317Z,12.62
2023-05-14T17:45:52.577Z,12.55
2023-05-14T17:48:21.296Z,12.40
2023-05-14T17:50:48.841Z,12.18
2023-05-14T17:53:15.620Z,11.93
2023-05-14T17:55:43.668Z,11.65
2023-05-14T17:58:15.259Z,11.64
2023-05-14T18:00:41.987Z,11.60
2023-05-14T18:03:11.793Z,11.50
2023-05-14T18:05:38.517Z,11.40
2023-05-14T18:08:09.471Z,11.32
2023-05-14T18:10:36.788Z,11.26
2023-05-14T18:13:03.727Z,11.14
2023-05-14T18:15:32.868Z,11.05
2023-05-14T18:17:59.742Z,11.02
2023-05-14T18:20:26.394Z,10.96
2023-05-14T18:22:53.285Z,10.89
2023-05-14T18:25:19.813Z,10.84
2023-05-14T18:27:46.961Z,10.73
2023-05-14T18:30:52.283Z,10.63
2023-05-14T18:34:57.192Z,10.44
2023-05-14T18:37:23.783Z,10.24
2023-05-14T18:39:56.388Z,10.22
2023-05-14T18:42:30.363Z,10.17
2023-05-14T18:45:06.849Z,10.13
2023-05-14T18:47:34.538Z,10.10
2023-05-14T18:50:02.187Z,10.03
2023-05-14T18:52:29.301Z,9.96
2023-05-14T18:54:55.970Z,9.77
2023-05-14T18:57:22.914Z,9.75
2023-05-14T18:59:49.440Z,9.52
2023-05-14T19:02:16.167Z,9.50
2023-05-14T19:04:51.795Z,9.54
2023-05-14T19:07:22.728Z,9.50
2023-05-14T19:09:49.333Z,9.53
2023-05-14T19:12:16.067Z,9.55
2023-05-14T19:14:42.987Z,9.57
2023-05-14T19:17:09.544Z,9.50
2023-05-14T19:19:36.470Z,9.40
2023-05-14T19:22:06.619Z,9.29
2023-05-14T19:24:33.295Z,9.38
2023-05-14T19:26:59.927Z,9.37
2023-05-14T19:29:26.982Z,9.40
2023-05-14T19:31:53.576Z,9.41
2023-05-14T19:34:20.526Z,9.36
2023-05-14T19:36:47.519Z,9.28
2023-05-14T19:39:14.097Z,9.37
2023-05-14T19:41:40.706Z,9.30
2023-05-14T19:44:10.427Z,9.25
2023-05-14T19:46:37.105Z,9.17
2023-05-14T19:49:03.847Z,9.21
2023-05-14T19:51:30.997Z,9.21
2023-05-14T19:53:57.625Z,9.11
2023-05-14T19:56:25.700Z,9.21
2023-05-14T19:58:53.905Z,9.21
2023-05-14T20:01:22.183Z,9.24
2023-05-14T20:03:48.757Z,9.33
2023-05-14T20:06:15.612Z,9.35
2023-05-14T20:08:42.305Z,9.46
2023-05-14T20:11:08.841Z,9.41
2023-05-14T20:13:36.712Z,9.24
2023-05-14T20:16:03.332Z,9.30
2023-05-14T20:18:29.979Z,9.29
2023-05-14T20:20:56.606Z,9.37
2023-05-14T20:23:23.131Z,9.29
2023-05-14T20:25:49.656Z,9.24
2023-05-14T20:28:16.198Z,9.20
2023-05-14T20:30:42.864Z,9.24
2023-05-14T20:33:09.669Z,9.22
2023-05-14T20:35:36.251Z,9.17
2023-05-14T20:38:06.123Z,9.08
2023-05-14T20:40:32.845Z,8.97
2023-05-14T20:42:59.536Z,8.86
2023-05-14T20:45:26.423Z,8.85
2023-05-14T20:47:53.381Z,8.68
2023-05-14T20:50:20.043Z,8.58
2023-05-14T20:52:46.848Z,8.56
2023-05-14T20:55:13.673Z,8.65
2023-05-14T20:57:40.712Z,8.68
2023-05-14T21:00:10.711Z,8.63
2023-05-14T21:02:37.617Z,8.52
2023-05-14T21:05:04.521Z,8.44
2023-05-14T21:07:31.716Z,8.45
2023-05-14T21:09:59.239Z,8.45
2023-05-14T21:12:26.044Z,8.39
2023-05-14T21:14:52.561Z,8.33
2023-05-14T21:17:19.153Z,8.28
2023-05-14T21:19:45.937Z,8.27
2023-05-14T21:22:12.796Z,8.36
2023-05-14T21:24:39.325Z,8.36
2023-05-14T21:27:06.110Z,8.36
2023-05-14T21:29:32.678Z,8.32
2023-05-14T21:31:59.294Z,8.36
2023-05-14T21:34:25.912Z,8.32
2023-05-14T21:36:52.784Z,8.39
2023-05-14T21:39:19.936Z,8.43
2023-05-14T21:41:46.442Z,8.45
2023-05-14T21:44:13.002Z,8.38
2023-05-14T21:46:39.650Z,8.33
2023-05-14T21:49:06.201Z,8.39
2023-05-14T21:51:33.067Z,8.49
2023-05-14T21:53:59.631Z,8.51
2023-05-14T21:56:26.304Z,8.45
2023-05-14T21:58:55.160Z,8.41
2023-05-14T22:01:21.790Z,8.36
2023-05-14T22:03:48.523Z,8.29
2023-05-14T22:06:15.098Z,8.16
2023-05-14T22:08:41.613Z,8.16
2023-05-14T22:11:08.182Z,8.13
2023-05-14T22:13:35.878Z,8.08
2023-05-14T22:16:12.105Z,7.99
2023-05-14T22:18:40.365Z,7.87
2023-05-14T22:21:06.945Z,7.78
2023-05-14T22:23:33.458Z,7.84
2023-05-14T22:26:00.017Z,7.83
2023-05-14T22:28:26.614Z,7.76
2023-05-14T22:30:53.209Z,7.73
2023-05-14T22:33:19.793Z,7.74
2023-05-14T22:35:46.342Z,7.63
2023-05-14T22:38:14.061Z,7.54
2023-05-14T22:40:40.739Z,7.57
2023-05-14T22:43:07.281Z,7.53
2023-05-14T22:45:33.842Z,7.53
2023-05-14T22:48:00.534Z,7.50
2023-05-14T22:50:27.100Z,7.49
2023-05-14T22:52:53.634Z,7.55
2023-05-14T22:55:20.182Z,7.50
2023-05-14T22:57:46.728Z,7.45
2023-05-14T23:00:13.731Z,7.44
2023-05-14T23:02:40.435Z,7.47
2023-05-14T23:05:08.272Z,7.55
2023-05-14T23:07:35.333Z,7.60
2023-05-14T23:10:01.995Z,7.62
2023-05-14T23:12:28.549Z,7.65
2023-05-14T23:14:55.087Z,7.60
2023-05-14T23:17:21.690Z,7.63
2023-05-14T23:19:48.270Z,7.64
2023-05-14T23:22:14.857Z,7.66
2023-05-14T23:24:41.375Z,7.63
2023-05-14T23:27:07.948Z,7.69
2023-05-14T23:29:34.509Z,7.86
2023-05-14T23:32:01.081Z,7.94
2023-05-14T23:34:27.864Z,7.96
2023-05-14T23:36:54.783Z,7.93
2023-05-14T23:39:21.705Z,7.95
2023-05-14T23:41:48.222Z,8.00
2023-05-14T23:44:15.195Z,8.01
2023-05-14T23:46:41.732Z,8.01
2023-05-14T23:49:08.336Z,7.98
2023-05-14T23:51:35.015Z,7.93
2023-05-14T23:54:01.555Z,7.93
2023-05-14T23:56:29.230Z,7.98
2023-05-14T23:58:56.228Z,8.04
